createdAt,value
2018-06-12T00:01:29.682Z,18.96
2018-06-12T00:03:58.825Z,19.03
2018-06-12T00:06:27.945Z,19.05
2018-06-12T00:08:57.073Z,19.01
2018-06-12T00:11:26.298Z,19.06
2018-06-12T00:13:55.446Z,19.11
2018-06-12T00:16:24.566Z,19.02
2018-06-12T00:18:53.689Z,19.11
2018-06-12T00:21:22.817Z,19.14
2018-06-12T00:23:51.933Z,19.05
2018-06-12T00:26:21.038Z,19.03
2018-06-12T00:28:50.153Z,19.02
2018-06-12T00:31:19.297Z,18.82
2018-06-12T00:33:48.426Z,18.94
2018-06-12T00:36:17.578Z,19.02
2018-06-12T00:38:46.683Z,18.98
2018-06-12T00:41:15.834Z,19.09
2018-06-12T00:43:44.986Z,18.90
2018-06-12T00:46:14.125Z,19.00
2018-06-12T00:48:43.278Z,19.01
2018-06-12T00:51:12.442Z,19.16
2018-06-12T00:53:41.579Z,19.15
2018-06-12T00:56:11.833Z,19.23
2018-06-12T00:58:40.930Z,19.15
2018-06-12T01:01:10.077Z,19.05
2018-06-12T01:03:39.189Z,19.22
2018-06-12T01:06:08.310Z,19.17
2018-06-12T01:08:37.421Z,19.10
2018-06-12T01:11:06.573Z,19.01
2018-06-12T01:13:35.694Z,19.01
2018-06-12T01:16:04.805Z,18.98
2018-06-12T01:18:33.941Z,19.10
2018-06-12T01:21:03.526Z,19.10
2018-06-12T01:23:32.635Z,19.20
2018-06-12T01:26:01.742Z,19.09
2018-06-12T01:28:30.886Z,18.92
2018-06-12T01:30:59.990Z,18.97
2018-06-12T01:33:29.153Z,19.04
2018-06-12T01:35:58.261Z,18.92
2018-06-12T01:38:27.397Z,19.03
2018-06-12T01:40:56.517Z,18.99
2018-06-12T01:43:25.629Z,19.00
2018-06-12T01:45:54.765Z,18.78
2018-06-12T01:48:23.947Z,18.94
2018-06-12T01:50:53.077Z,18.76
2018-06-12T01:53:22.208Z,18.79
2018-06-12T01:55:51.343Z,18.82
2018-06-12T01:58:24.321Z,18.89
2018-06-12T02:00:53.457Z,18.89
2018-06-12T02:03:22.557Z,18.94
2018-06-12T02:05:51.686Z,18.91
2018-06-12T02:08:20.833Z,18.97
2018-06-12T02:10:49.986Z,18.88
2018-06-12T02:13:19.114Z,18.82
2018-06-12T02:15:48.249Z,18.79
2018-06-12T02:18:17.375Z,18.80
2018-06-12T02:20:46.545Z,18.54
2018-06-12T02:23:15.682Z,18.44
2018-06-12T02:25:44.782Z,18.47
2018-06-12T02:28:13.921Z,18.69
2018-06-12T02:30:43.058Z,18.74
2018-06-12T02:33:12.166Z,18.78
2018-06-12T02:35:41.284Z,18.68
2018-06-12T02:38:10.396Z,18.62
2018-06-12T02:40:39.545Z,18.57
2018-06-12T02:43:08.926Z,18.63
2018-06-12T02:45:38.054Z,18.39
2018-06-12T02:48:07.154Z,18.48
2018-06-12T02:50:36.318Z,18.42
2018-06-12T02:53:05.499Z,18.63
2018-06-12T02:55:34.657Z,18.15
2018-06-12T02:58:03.837Z,18.15
2018-06-12T03:00:32.958Z,18.05
2018-06-12T03:03:02.123Z,17.88
2018-06-12T03:05:31.249Z,17.87
2018-06-12T03:08:00.386Z,18.01
2018-06-12T03:10:29.514Z,18.05
2018-06-12T03:12:58.643Z,18.21
2018-06-12T03:15:28.199Z,18.32
2018-06-12T03:17:57.314Z,18.30
2018-06-12T03:20:37.722Z,18.35
2018-06-12T03:23:06.896Z,18.38
2018-06-12T03:25:36.014Z,18.24
2018-06-12T03:28:05.151Z,18.32
2018-06-12T03:30:34.277Z,18.13
2018-06-12T03:33:03.464Z,18.18
2018-06-12T03:35:32.678Z,18.19
2018-06-12T03:38:01.809Z,18.30
2018-06-12T03:40:30.994Z,18.33
2018-06-12T03:43:00.104Z,18.17
2018-06-12T03:45:29.254Z,18.24
2018-06-12T03:47:58.390Z,18.32
2018-06-12T03:50:27.554Z,18.31
2018-06-12T03:52:56.702Z,18.33
2018-06-12T03:55:25.846Z,18.44
2018-06-12T03:57:54.966Z,18.45
2018-06-12T04:00:24.093Z,18.21
2018-06-12T04:02:53.229Z,18.18
2018-06-12T04:05:22.339Z,18.10
2018-06-12T04:07:51.485Z,18.10
2018-06-12T04:10:20.613Z,17.99
2018-06-12T04:12:49.811Z,18.17
2018-06-12T04:15:18.934Z,17.94
2018-06-12T04:17:48.097Z,18.10
2018-06-12T04:20:17.231Z,18.13
2018-06-12T04:22:46.359Z,18.18
2018-06-12T04:25:15.492Z,18.12
2018-06-12T04:27:44.609Z,18.14
2018-06-12T04:30:13.750Z,18.11
2018-06-12T04:32:42.861Z,18.20
2018-06-12T04:35:11.993Z,18.32
2018-06-12T04:37:41.122Z,18.35
2018-06-12T04:40:10.588Z,18.32
2018-06-12T04:42:39.705Z,18.30
2018-06-12T04:45:08.821Z,18.24
2018-06-12T04:47:37.956Z,18.32
2018-06-12T04:50:07.084Z,18.34
2018-06-12T04:52:37.129Z,18.33
2018-06-12T04:55:06.254Z,18.33
2018-06-12T04:57:35.393Z,18.30
2018-06-12T05:00:04.542Z,18.16
2018-06-12T05:02:33.677Z,18.07
2018-06-12T05:05:02.817Z,17.93
2018-06-12T05:07:31.962Z,17.80
2018-06-12T05:10:01.100Z,17.85
2018-06-12T05:12:30.214Z,17.84
2018-06-12T05:14:59.331Z,17.86
2018-06-12T05:17:28.465Z,17.79
2018-06-12T05:19:57.610Z,17.94
2018-06-12T05:22:26.725Z,18.10
2018-06-12T05:24:55.846Z,18.13
2018-06-12T05:27:24.955Z,18.23
2018-06-12T05:29:54.101Z,18.12
2018-06-12T05:32:23.241Z,18.05
2018-06-12T05:34:52.413Z,18.10
2018-06-12T05:37:21.567Z,18.29
2018-06-12T05:39:50.710Z,18.08
2018-06-12T05:42:19.825Z,18.06
2018-06-12T05:44:48.934Z,17.97
2018-06-12T05:47:18.049Z,17.90
2018-06-12T05:49:47.176Z,17.99
2018-06-12T05:52:16.338Z,17.96
2018-06-12T05:54:45.485Z,17.81
2018-06-12T05:57:19.814Z,17.97
2018-06-12T05:59:49.036Z,17.78
2018-06-12T06:02:18.943Z,17.91
2018-06-12T06:04:48.554Z,18.14
2018-06-12T06:07:17.772Z,18.01
2018-06-12T06:09:46.894Z,17.90
2018-06-12T06:12:16.238Z,17.88
2018-06-12T06:14:45.408Z,17.85
2018-06-12T06:17:14.737Z,17.91
2018-06-12T06:19:43.937Z,18.19
2018-06-12T06:22:13.053Z,18.19
2018-06-12T06:24:42.177Z,18.09
2018-06-12T06:27:11.278Z,18.11
2018-06-12T06:29:40.445Z,18.12
2018-06-12T06:32:09.647Z,18.04
2018-06-12T06:34:38.763Z,17.96
2018-06-12T06:37:08.120Z,18.10
2018-06-12T06:39:37.225Z,18.31
2018-06-12T06:42:06.669Z,18.28
2018-06-12T06:44:35.779Z,18.15
2018-06-12T06:47:04.918Z,18.26
2018-06-12T06:49:35.147Z,18.23
2018-06-12T06:52:04.293Z,18.42
2018-06-12T06:54:33.430Z,18.46
2018-06-12T06:57:02.569Z,18.32
2018-06-12T06:59:31.693Z,18.43
2018-06-12T07:02:00.835Z,18.39
2018-06-12T07:04:29.947Z,18.58
2018-06-12T07:06:59.051Z,18.50
2018-06-12T07:09:28.192Z,18.47
2018-06-12T07:11:57.330Z,18.65
2018-06-12T07:14:26.465Z,18.78
2018-06-12T07:16:55.642Z,18.76
2018-06-12T07:19:24.764Z,18.73
2018-06-12T07:21:53.989Z,18.98
2018-06-12T07:24:23.161Z,18.67
2018-06-12T07:26:52.285Z,18.88
2018-06-12T07:29:23.468Z,18.92
2018-06-12T07:31:52.609Z,18.88
2018-06-12T07:34:21.746Z,18.78
2018-06-12T07:36:50.870Z,18.90
2018-06-12T07:39:19.994Z,19.00
2018-06-12T07:41:49.166Z,19.00
2018-06-12T07:44:18.281Z,18.94
2018-06-12T07:46:47.406Z,18.75
2018-06-12T07:49:16.633Z,18.87
2018-06-12T07:51:45.850Z,18.70
2018-06-12T07:54:15.089Z,18.70
2018-06-12T07:56:44.253Z,18.86
2018-06-12T07:59:13.385Z,18.84
2018-06-12T08:01:42.667Z,18.99
2018-06-12T08:04:11.802Z,19.18
2018-06-12T08:06:41.007Z,19.18
2018-06-12T08:09:10.115Z,19.12
2018-06-12T08:11:39.257Z,19.19
2018-06-12T08:14:08.370Z,18.91
2018-06-12T08:16:37.545Z,19.05
2018-06-12T08:19:06.666Z,19.30
2018-06-12T08:21:36.057Z,19.12
2018-06-12T08:24:05.190Z,19.21
2018-06-12T08:26:34.314Z,18.98
2018-06-12T08:29:03.507Z,19.03
2018-06-12T08:31:32.629Z,19.04
2018-06-12T08:34:01.763Z,19.18
2018-06-12T08:36:30.923Z,18.94
2018-06-12T08:39:00.063Z,19.12
2018-06-12T08:41:29.310Z,19.14
2018-06-12T08:43:58.777Z,19.40
2018-06-12T08:46:27.929Z,19.22
2018-06-12T08:48:57.184Z,19.28
2018-06-12T08:51:26.298Z,19.38
2018-06-12T08:53:55.529Z,19.58
2018-06-12T08:56:24.631Z,19.23
2018-06-12T08:58:53.808Z,19.32
2018-06-12T09:01:22.936Z,19.42
2018-06-12T09:03:52.078Z,19.51
2018-06-12T09:06:21.221Z,19.66
2018-06-12T09:08:50.372Z,19.77
2018-06-12T09:11:20.578Z,19.71
2018-06-12T09:13:49.701Z,19.80
2018-06-12T09:16:18.835Z,19.60
2018-06-12T09:18:47.953Z,20.07
2018-06-12T09:21:17.206Z,19.90
2018-06-12T09:23:48.470Z,19.61
2018-06-12T09:26:17.630Z,20.00
2018-06-12T09:28:46.764Z,19.97
2018-06-12T09:31:15.897Z,19.98
2018-06-12T09:33:45.015Z,19.74
2018-06-12T09:36:23.018Z,19.65
2018-06-12T09:38:54.210Z,19.72
2018-06-12T09:41:23.357Z,19.76
2018-06-12T09:43:52.486Z,19.62
2018-06-12T09:46:21.630Z,19.61
2018-06-12T09:48:50.759Z,19.74
2018-06-12T09:51:19.889Z,19.85
2018-06-12T09:53:49.022Z,20.05
2018-06-12T09:56:18.147Z,19.96
2018-06-12T09:58:47.369Z,20.02
2018-06-12T10:01:20.417Z,20.00
2018-06-12T10:03:50.745Z,19.78
2018-06-12T10:06:19.853Z,19.81
2018-06-12T10:08:49.025Z,19.87
2018-06-12T10:11:18.155Z,19.81
2018-06-12T10:13:47.282Z,20.09
2018-06-12T10:16:16.425Z,20.05
2018-06-12T10:18:45.596Z,19.87
2018-06-12T10:21:17.953Z,19.84
2018-06-12T10:23:47.100Z,19.75
2018-06-12T10:26:16.265Z,19.72
2018-06-12T10:28:45.449Z,19.81
2018-06-12T10:31:14.614Z,19.72
2018-06-12T10:33:43.750Z,19.67
2018-06-12T10:36:12.914Z,19.64
2018-06-12T10:38:42.028Z,19.72
2018-06-12T10:41:11.174Z,19.57
2018-06-12T10:43:40.401Z,19.49
2018-06-12T10:46:09.506Z,19.36
2018-06-12T10:48:38.657Z,19.29
2018-06-12T10:51:07.978Z,19.40
2018-06-12T10:53:37.111Z,19.41
2018-06-12T10:56:06.292Z,19.48
2018-06-12T10:58:35.405Z,19.58
2018-06-12T11:01:04.567Z,19.73
2018-06-12T11:03:33.767Z,19.72
2018-06-12T11:06:02.886Z,19.66
2018-06-12T11:08:32.073Z,19.61
2018-06-12T11:11:01.207Z,19.21
2018-06-12T11:13:30.331Z,19.50
2018-06-12T11:15:59.499Z,19.54
2018-06-12T11:18:28.655Z,19.42
2018-06-12T11:20:58.081Z,19.37
2018-06-12T11:23:27.238Z,19.64
2018-06-12T11:25:56.441Z,19.95
2018-06-12T11:28:25.582Z,19.77
2018-06-12T11:30:54.751Z,19.64
2018-06-12T11:33:23.956Z,19.65
2018-06-12T11:35:53.121Z,19.31
2018-06-12T11:38:22.509Z,19.54
2018-06-12T11:40:51.666Z,19.59
2018-06-12T11:43:20.809Z,19.80
2018-06-12T11:45:49.967Z,20.19
2018-06-12T11:48:19.174Z,19.63
2018-06-12T11:50:54.335Z,19.74
2018-06-12T11:53:23.483Z,19.84
2018-06-12T11:55:52.633Z,19.73
2018-06-12T11:58:21.789Z,19.64
2018-06-12T12:00:50.937Z,19.82
2018-06-12T12:03:20.092Z,19.65
2018-06-12T12:05:49.265Z,19.53
2018-06-12T12:08:18.430Z,19.33
2018-06-12T12:10:47.542Z,19.20
2018-06-12T12:13:16.681Z,19.33
2018-06-12T12:15:45.829Z,19.40
2018-06-12T12:18:14.954Z,19.57
2018-06-12T12:20:44.118Z,19.51
2018-06-12T12:23:13.508Z,19.83
2018-06-12T12:28:40.393Z,19.49
2018-06-12T12:31:09.489Z,19.70
2018-06-12T12:33:38.661Z,19.54
2018-06-12T12:36:07.841Z,19.74
2018-06-12T12:38:36.969Z,19.68
2018-06-12T12:41:06.102Z,19.72
2018-06-12T12:43:35.257Z,19.77
2018-06-12T12:46:04.398Z,19.75
2018-06-12T12:48:33.522Z,19.66
2018-06-12T12:51:02.650Z,19.85
2018-06-12T12:53:31.780Z,19.63
2018-06-12T12:56:00.995Z,19.72
2018-06-12T12:58:30.137Z,19.73
2018-06-12T13:00:59.305Z,19.79
2018-06-12T13:03:52.858Z,20.20
2018-06-12T13:06:21.978Z,20.10
2018-06-12T13:08:51.141Z,19.86
2018-06-12T13:11:20.305Z,19.96
2018-06-12T13:13:49.503Z,20.23
2018-06-12T13:16:18.662Z,19.98
2018-06-12T13:18:47.811Z,19.86
2018-06-12T13:21:16.937Z,20.04
2018-06-12T13:23:56.894Z,19.57
2018-06-12T13:26:26.015Z,19.62
2018-06-12T13:28:55.139Z,19.67
2018-06-12T13:31:24.325Z,19.70
2018-06-12T13:33:53.512Z,19.74
2018-06-12T13:36:22.641Z,19.63
2018-06-12T13:38:51.794Z,19.41
2018-06-12T13:41:20.934Z,19.37
2018-06-12T13:43:50.058Z,19.54
2018-06-12T13:46:19.247Z,19.35
2018-06-12T13:48:48.370Z,19.31
2018-06-12T13:51:17.510Z,19.17
2018-06-12T13:53:47.358Z,19.32
2018-06-12T13:56:16.606Z,19.19
2018-06-12T13:58:45.736Z,19.84
2018-06-12T14:01:14.889Z,19.77
2018-06-12T14:03:44.021Z,19.75
2018-06-12T14:06:13.182Z,19.71
2018-06-12T14:08:42.340Z,19.65
2018-06-12T14:11:12.257Z,19.48
2018-06-12T14:13:41.439Z,19.32
2018-06-12T14:16:10.564Z,19.60
2018-06-12T14:18:39.679Z,19.59
2018-06-12T14:21:08.949Z,19.45
2018-06-12T14:23:38.409Z,19.42
2018-06-12T14:26:07.569Z,19.49
2018-06-12T14:28:36.713Z,19.65
2018-06-12T14:31:06.043Z,19.72
2018-06-12T14:33:35.274Z,19.28
2018-06-12T14:36:04.515Z,19.42
2018-06-12T14:38:33.772Z,19.52
2018-06-12T14:41:02.937Z,19.27
2018-06-12T14:43:32.251Z,19.35
2018-06-12T14:46:01.367Z,19.11
2018-06-12T14:48:30.502Z,19.22
2018-06-12T14:50:59.645Z,19.26
2018-06-12T14:53:30.130Z,19.20
2018-06-12T14:55:59.245Z,19.24
2018-06-12T14:58:28.429Z,19.41
2018-06-12T15:00:57.548Z,19.75
2018-06-12T15:03:26.714Z,19.34
2018-06-12T15:05:55.962Z,19.26
2018-06-12T15:08:25.095Z,19.33
2018-06-12T15:10:58.196Z,19.28
2018-06-12T15:13:27.309Z,19.19
2018-06-12T15:15:56.449Z,19.15
2018-06-12T15:18:25.574Z,18.99
2018-06-12T15:20:54.747Z,18.93
2018-06-12T15:23:23.866Z,19.15
2018-06-12T15:25:53.003Z,19.03
2018-06-12T15:28:22.140Z,19.01
2018-06-12T15:30:51.284Z,18.66
2018-06-12T15:33:20.442Z,19.01
2018-06-12T15:35:49.588Z,18.96
2018-06-12T15:38:18.838Z,19.04
2018-06-12T15:40:47.971Z,19.00
2018-06-12T15:43:17.321Z,18.76
2018-06-12T15:45:46.583Z,18.99
2018-06-12T15:48:15.705Z,18.86
2018-06-12T15:50:44.892Z,19.51
2018-06-12T15:53:14.066Z,19.03
2018-06-12T15:55:43.217Z,18.96
2018-06-12T15:58:12.359Z,18.79
2018-06-12T16:00:41.636Z,18.44
2018-06-12T16:03:10.803Z,18.53
2018-06-12T16:05:39.956Z,18.39
2018-06-12T16:08:09.741Z,18.39
2018-06-12T16:10:38.961Z,18.22
2018-06-12T16:13:22.863Z,18.22
2018-06-12T16:19:01.742Z,18.16
2018-06-12T16:21:30.858Z,18.18
2018-06-12T16:24:00.028Z,18.14
2018-06-12T16:26:32.824Z,18.02
2018-06-12T16:29:01.995Z,18.03
2018-06-12T16:31:31.136Z,18.04
2018-06-12T16:34:00.313Z,17.93
2018-06-12T16:36:29.586Z,17.91
2018-06-12T16:38:58.786Z,18.17
2018-06-12T16:41:28.067Z,17.89
2018-06-12T16:43:57.478Z,17.74
2018-06-12T16:46:26.733Z,17.86
2018-06-12T16:48:57.978Z,18.10
2018-06-12T16:51:27.182Z,17.82
2018-06-12T16:53:56.352Z,17.86
2018-06-12T16:56:25.514Z,18.09
2018-06-12T16:58:54.713Z,17.80
2018-06-12T17:01:23.865Z,17.69
2018-06-12T17:03:52.991Z,17.77
2018-06-12T17:06:22.247Z,17.96
2018-06-12T17:08:52.448Z,17.85
2018-06-12T17:11:21.597Z,17.85
2018-06-12T17:13:50.861Z,18.01
2018-06-12T17:16:23.796Z,18.06
2018-06-12T17:18:53.013Z,17.77
2018-06-12T17:21:22.150Z,17.80
2018-06-12T17:23:52.341Z,17.56
2018-06-12T17:26:21.442Z,17.54
2018-06-12T17:28:50.666Z,17.49
2018-06-12T17:31:19.821Z,17.52
2018-06-12T17:33:48.939Z,17.98
2018-06-12T17:36:18.130Z,18.10
2018-06-12T17:38:49.301Z,17.86
2018-06-12T17:41:18.422Z,17.78
2018-06-12T17:43:48.635Z,17.62
2018-06-12T17:46:17.951Z,17.69
2018-06-12T17:48:47.072Z,17.75
2018-06-12T17:51:16.290Z,17.72
2018-06-12T17:53:45.435Z,17.67
2018-06-12T17:56:14.604Z,17.54
2018-06-12T17:58:43.728Z,17.44
2018-06-12T18:01:12.839Z,17.46
2018-06-12T18:03:43.997Z,17.57
2018-06-12T18:06:14.297Z,17.54
2018-06-12T18:08:43.518Z,17.65
2018-06-12T18:11:12.646Z,17.64
2018-06-12T18:13:42.359Z,17.66
2018-06-12T18:16:11.502Z,17.77
2018-06-12T18:18:40.614Z,17.73
2018-06-12T18:21:10.799Z,17.74
2018-06-12T18:23:39.948Z,17.66
2018-06-12T18:26:09.080Z,17.76
2018-06-12T18:28:43.400Z,17.95
2018-06-12T18:31:12.523Z,18.14
2018-06-12T18:33:41.869Z,17.90
2018-06-12T18:36:30.966Z,18.09
2018-06-12T18:39:00.158Z,17.85
2018-06-12T18:41:29.334Z,17.85
2018-06-12T18:43:58.462Z,17.94
2018-06-12T18:46:27.631Z,18.01
2018-06-12T18:48:57.071Z,17.92
2018-06-12T18:51:26.229Z,18.44
2018-06-12T18:53:55.352Z,18.12
2018-06-12T18:56:26.599Z,17.92
2018-06-12T18:58:55.715Z,17.92
2018-06-12T19:01:24.861Z,17.91
2018-06-12T19:03:53.998Z,17.86
2018-06-12T19:06:26.061Z,17.92
2018-06-12T19:08:55.168Z,18.28
2018-06-12T19:11:26.370Z,17.96
2018-06-12T19:13:55.503Z,18.12
2018-06-12T19:16:24.614Z,18.34
2018-06-12T19:18:54.816Z,18.18
2018-06-12T19:21:23.927Z,18.17
2018-06-12T19:23:53.066Z,18.06
2018-06-12T19:26:22.186Z,18.02
2018-06-12T19:28:55.014Z,18.50
2018-06-12T19:31:24.299Z,18.71
2018-06-12T19:33:55.565Z,18.23
2018-06-12T19:36:24.682Z,18.57
2018-06-12T19:38:54.856Z,18.39
2018-06-12T19:41:28.779Z,18.34
2018-06-12T19:43:58.035Z,18.38
2018-06-12T19:46:27.170Z,18.54
2018-06-12T19:48:57.684Z,18.75
2018-06-12T19:51:26.875Z,18.56
2018-06-12T19:53:57.139Z,18.38
2018-06-12T19:56:26.317Z,18.34
2018-06-12T19:58:55.421Z,18.33
2018-06-12T20:01:24.595Z,18.42
2018-06-12T20:03:53.770Z,18.23
2018-06-12T20:06:22.934Z,18.26
2018-06-12T20:08:52.150Z,18.44
2018-06-12T20:11:21.281Z,18.38
2018-06-12T20:13:50.447Z,18.40
2018-06-12T20:16:19.565Z,18.19
2018-06-12T20:18:48.687Z,18.16
2018-06-12T20:21:18.914Z,18.15
2018-06-12T20:23:48.038Z,18.08
2018-06-12T20:26:17.171Z,18.15
2018-06-12T20:28:47.438Z,18.20
2018-06-12T20:31:16.571Z,18.21
2018-06-12T20:33:45.755Z,18.08
2018-06-12T20:36:14.901Z,18.04
2018-06-12T20:38:44.004Z,17.87
2018-06-12T20:41:13.117Z,17.93
2018-06-12T20:43:42.290Z,17.93
2018-06-12T20:46:11.431Z,18.02
2018-06-12T20:48:40.565Z,18.06
2018-06-12T20:51:09.706Z,17.97
2018-06-12T20:53:38.845Z,17.93
2018-06-12T20:56:08.014Z,18.02
2018-06-12T20:58:37.160Z,18.16
2018-06-12T21:01:06.285Z,18.20
2018-06-12T21:03:35.506Z,18.20
2018-06-12T21:06:04.701Z,18.16
2018-06-12T21:08:33.933Z,18.14
2018-06-12T21:11:03.063Z,18.19
2018-06-12T21:13:32.188Z,17.98
2018-06-12T21:16:01.339Z,17.98
2018-06-12T21:18:30.502Z,17.82
2018-06-12T21:20:59.593Z,18.06
2018-06-12T21:23:28.738Z,18.07
2018-06-12T21:25:57.881Z,17.97
2018-06-12T21:28:27.012Z,17.98
2018-06-12T21:30:56.134Z,17.96
2018-06-12T21:33:25.273Z,17.89
2018-06-12T21:35:54.385Z,17.76
2018-06-12T21:38:23.513Z,17.94
2018-06-12T21:40:52.631Z,17.80
2018-06-12T21:43:21.758Z,17.84
2018-06-12T21:45:50.915Z,17.67
2018-06-12T21:48:20.073Z,17.70
2018-06-12T21:50:49.191Z,17.67
2018-06-12T21:53:18.327Z,17.73
2018-06-12T21:55:47.799Z,17.72
2018-06-12T21:58:17.015Z,17.48
2018-06-12T22:00:46.130Z,17.68
2018-06-12T22:03:15.266Z,17.71
2018-06-12T22:05:44.420Z,17.62
2018-06-12T22:08:13.566Z,17.48
2018-06-12T22:10:42.706Z,17.35
2018-06-12T22:13:11.837Z,17.35
2018-06-12T22:15:41.062Z,17.41
2018-06-12T22:18:10.215Z,17.50
2018-06-12T22:20:39.379Z,17.54
2018-06-12T22:23:08.518Z,17.27
2018-06-12T22:25:37.645Z,17.26
2018-06-12T22:28:07.815Z,17.14
2018-06-12T22:30:36.942Z,17.20
2018-06-12T22:33:06.073Z,17.07
2018-06-12T22:35:35.307Z,17.00
2018-06-12T22:38:04.461Z,16.89
2018-06-12T22:40:33.741Z,16.95
2018-06-12T22:43:02.861Z,17.06
2018-06-12T22:45:31.990Z,16.90
2018-06-12T22:48:01.182Z,17.01
2018-06-12T22:50:30.321Z,16.81
2018-06-12T22:52:59.465Z,16.92
2018-06-12T22:55:28.584Z,16.83
2018-06-12T22:57:57.705Z,16.82
2018-06-12T23:00:26.833Z,16.85
2018-06-12T23:02:55.970Z,16.81
2018-06-12T23:05:25.108Z,16.75
2018-06-12T23:07:54.277Z,16.92
2018-06-12T23:10:34.613Z,17.00
2018-06-12T23:13:03.728Z,16.78
2018-06-12T23:15:32.849Z,16.77
2018-06-12T23:18:01.986Z,16.79
2018-06-12T23:20:55.361Z,16.75
2018-06-12T23:23:24.526Z,16.77
2018-06-12T23:25:53.628Z,16.67
2018-06-12T23:28:22.810Z,16.60
2018-06-12T23:30:51.924Z,16.46
2018-06-12T23:33:21.086Z,16.53
2018-06-12T23:35:50.209Z,16.51
2018-06-12T23:38:19.339Z,16.60
2018-06-12T23:40:48.473Z,16.49
2018-06-12T23:43:17.602Z,16.50
2018-06-12T23:45:46.725Z,16.61
2018-06-12T23:48:15.889Z,16.56
2018-06-12T23:50:45.029Z,16.54
2018-06-12T23:53:14.142Z,16.57
2018-06-12T23:55:43.275Z,16.48
2018-06-12T23:58:12.398Z,16.81
